Погода Нарсингдина неделю

Дакка, Бангладеш

06 - 12 февраля
  • 06февраля
    Сегодня
    +16°
    +28°
    Ясно и безоблачно
    ВремяПогодаТемператураВлажностьДавлениеВетер, м/сВероятность осадков
    00:00Ясно и безоблачно+18°C89 %759 мм2.6 м/с2 %
    03:00Ясно и безоблачно+18°C86 %758 мм0.4 м/с2 %
    06:00Практически безоблачно+17°C96 %759 мм0.7 м/с2 %
    09:00Ясно и безоблачно+19°C77 %760 мм0.5 м/с2 %
    12:00Ясно и безоблачно+24°C47 %759 мм2.6 м/с2 %
    15:00Ясно и безоблачно+27°C38 %757 мм3.3 м/с2 %
    18:00Ясно и безоблачно+24°C57 %757 мм2.2 м/с2 %
    21:00Ясно и безоблачно+21°C57 %758 мм0.8 м/с2 %
  • 07февраля
    Вторник
    +16°
    +29°
    Ясно и безоблачно
    ВремяПогодаТемператураВлажностьДавлениеВетер, м/сВероятность осадков
    00:00Ясно и безоблачно+22°C69 %757 мм1.5 м/с2 %
    03:00Ясно и безоблачно+17°C88 %757 мм2.2 м/с2 %
    06:00Ясно и безоблачно+17°C95 %758 мм1.9 м/с2 %
    09:00Ясно и безоблачно+19°C78 %759 мм2.6 м/с2 %
    12:00Ясно и безоблачно+24°C50 %759 мм2.9 м/с2 %
    15:00Ясно и безоблачно+28°C33 %756 мм3.3 м/с2 %
    18:00Ясно и безоблачно+25°C58 %757 мм2.8 м/с2 %
    21:00Ясно и безоблачно+21°C72 %758 мм2.6 м/с2 %
  • 08февраля
    Среда
    +16°
    +29°
    Ясно и безоблачно
    ВремяПогодаТемператураВлажностьДавлениеВетер, м/сВероятность осадков
    00:00Ясно и безоблачно+19°C86 %758 мм2.4 м/с2 %
    03:00Ясно и безоблачно+19°C95 %757 мм2.1 м/с2 %
    06:00Небольшая облачность+18°C99 %758 мм2.0 м/с2 %
    09:00Практически безоблачно+20°C86 %759 мм3.1 м/с2 %
    12:00Небольшая облачность+25°C62 %759 мм3.6 м/с3 %
    15:00Ясно и безоблачно+28°C55 %757 мм3.0 м/с3 %
    18:00Ясно и безоблачно+25°C71 %757 мм2.5 м/с2 %
    21:00Ясно и безоблачно+21°C79 %759 мм2.1 м/с2 %
  • 09февраля
    Четверг
    +17°
    +29°
    Ясно и безоблачно
    ВремяПогодаТемператураВлажностьДавлениеВетер, м/сВероятность осадков
    00:00Ясно и безоблачно+21°C75 %759 мм1.2 м/с2 %
    03:00Практически безоблачно+20°C81 %758 мм0.3 м/с2 %
    06:00Практически безоблачно+18°C88 %758 мм0.5 м/с2 %
    09:00Облачно с прояснениями+19°C89 %760 мм1.4 м/с1 %
    12:00Ясно и безоблачно+24°C58 %760 мм0.6 м/с3 %
    15:00Ясно и безоблачно+28°C37 %757 мм2.6 м/с2 %
    18:00Ясно и безоблачно+26°C47 %757 мм2.6 м/с2 %
    21:00Ясно и безоблачно+21°C60 %759 мм2.6 м/с2 %
  • 10февраля
    Пятница
    +16°
    +28°
    Ясно и безоблачно
    ВремяПогодаТемператураВлажностьДавлениеВетер, м/сВероятность осадков
    00:00Ясно и безоблачно+19°C68 %759 мм2.7 м/с2 %
    03:00Ясно и безоблачно+17°C80 %758 мм2.7 м/с2 %
    06:00Ясно и безоблачно+18°C84 %758 мм1.1 м/с2 %
    09:00Ясно и безоблачно+19°C64 %760 мм0.7 м/с2 %
    12:00Ясно и безоблачно+25°C39 %760 мм2.1 м/с2 %
    15:00Ясно и безоблачно+28°C32 %757 мм3.1 м/с2 %
    18:00Ясно и безоблачно+24°C56 %757 мм2.4 м/с2 %
    21:00Ясно и безоблачно+22°C59 %759 мм1.9 м/с2 %
Мы используем cookies
Соглашаюсь